Главная страница
METAR-TAF:

METAR-TAF

Аэропорты :

Hemavan, Швеция

широта: 65-48-22N, долгота: 015-04-58E, высота над уровнем моря: 458 м

Текущие метеонаблюдения

Эта сводка был подготовлена 30 минут назад, в 01:20 UTC
Ветер 8 Узел от восточно-юго-восточный
Температура 1°C
Влажность 86%
Давление 998 hPa
Видимость 10 км и более
небольшой дождь

METAR: ESUT 220120Z AUTO 12008KT 9999 -RA FEW008/// OVC013/// 01/M01 Q0998

Время: 03:50 (01:50 UTC)


TAF: отсутствует

Метеонаблюдения и прогнозы для более 4000 аэропортов (сводки METAR и TAF).

Имеющиеся станции представлены на карте желтыми и красными точками.

Чтобы увидеть название станции, наведите на нее мышь.

Затем щелкните, чтобы увидеть метеонаблюдения и метеопрогнозы.

Управление картой: чтобы увеличить масштаб, щелкните зеленые кнопки с черным крестиком; чтобы уменьшить масштаб, щелкните зеленую кнопку с тире; для просмотра соседних карт щелкайте зеленые стрелки.


METAR-TAF: